Terminal Aerodrome Forecast
Issued by NWS

Home | Current Version | Previous Version | Text Only | Print | Product List | Glossary On
Versions: 1 2 3 4 5 6 7 8 9 10 11 12 13 14 15 16
000
FTUS46 KSEW 231731
TAFPAE
TAF
KPAE 231731Z 2318/2418 19005KT P6SM SCT100
     FM232000 28005KT P6SM SCT100 SCT200
     FM240000 33004KT P6SM SCT100 BKN200
     FM241000 VRB02KT P6SM FEW009 FEW050 OVC100
     FM241500 VRB02KT P6SM FEW012 BKN050 OVC100=

USA.gov is the U.S. government's official web portal to all federal, state and local government web resources and services.